Lawrenceville, Illinois
Current Conditions -  °F | °C
As of 1:36 PM on Saturday 25 Oct 2014 (Local Time) from KLWV Reporting Station
Haze Haze  
Wind Chill: 77°   Ceiling: Unl
Heat Index: 78°   Visibility: 5mi
Dew Point: 55°   Wind: 8mph
Humidity: 46%   Direction: 250°WSW
Pressure: 29.98"   Gusts: NA
Location:  38.73°N, 87.68°W
Report Text: KLWV 251836Z AUTO 25007KT 5SM HZ CLR 25/13 A2998 RMK AO2 T02500128
Loading
Personal Weather Stations






























Interactive Weather Map
Tropical Storm Tracking
New forecast layout! Learn more

10-Day Weather Forecast

Advertisements
Track Severe Weather on mobile